Time,TemperatureF,DewpointF,PressureIn,WindDirection,WindDirectionDegrees,WindSpeedMPH,WindSpeedGustMPH,Humidity,HourlyPrecipIn,Conditions,Clouds,dailyrainin,SoftwareType,DateUTC
2013-09-03 00:02:00,69.0,65.6,29.91,NNE,27,0.0,0.0,89,0.00,,,0.00,Wunderground v.1.15,2013-09-03 05:02:00,
2013-09-03 00:07:00,68.4,65.0,29.91,NNE,27,0.0,0.0,89,0.00,,,0.00,Wunderground v.1.15,2013-09-03 05:07:00,
2013-09-03 00:13:00,68.0,65.0,29.91,NNE,27,0.0,0.0,90,0.00,,,0.00,Wunderground v.1.15,2013-09-03 05:13:00,
2013-09-03 00:19:00,67.6,64.6,29.91,NNE,27,0.0,0.0,90,0.00,,,0.00,Wunderground v.1.15,2013-09-03 05:19:00,
2013-09-03 00:25:00,67.4,64.7,29.91,NNE,27,0.0,0.0,91,0.00,,,0.00,Wunderground v.1.15,2013-09-03 05:25:00,
2013-09-03 00:30:00,67.1,64.4,29.91,NNE,27,0.0,0.0,91,0.00,,,0.00,Wunderground v.1.15,2013-09-03 05:30:00,
2013-09-03 00:36:00,66.9,64.5,29.91,NNE,27,0.0,0.0,92,0.00,,,0.00,Wunderground v.1.15,2013-09-03 05:36:00,
2013-09-03 00:42:00,66.6,64.2,29.91,NNE,27,0.0,0.0,92,0.00,,,0.00,Wunderground v.1.15,2013-09-03 05:42:00,
2013-09-03 00:48:00,66.4,64.3,29.91,NNE,27,0.0,0.0,93,0.00,,,0.00,Wunderground v.1.15,2013-09-03 05:48:00,
2013-09-03 00:53:00,66.3,64.5,29.91,NNE,27,0.0,0.0,94,0.00,,,0.00,Wunderground v.1.15,2013-09-03 05:53:00,
2013-09-03 00:58:00,66.2,64.4,29.91,NNE,27,0.0,0.0,94,0.00,,,0.00,Wunderground v.1.15,2013-09-03 05:58:00,
2013-09-03 01:03:00,66.1,64.3,29.91,NNE,27,0.0,0.0,94,0.00,,,0.00,Wunderground v.1.15,2013-09-03 06:03:00,
2013-09-03 01:09:00,66.0,64.2,29.91,NNE,27,0.0,0.0,94,0.00,,,0.00,Wunderground v.1.15,2013-09-03 06:09:00,
2013-09-03 01:15:00,65.8,64.3,29.91,NNE,27,0.0,0.0,95,0.00,,,0.00,Wunderground v.1.15,2013-09-03 06:15:00,
2013-09-03 01:20:00,65.7,64.2,29.91,NNE,26,0.0,0.0,95,0.00,,,0.00,Wunderground v.1.15,2013-09-03 06:20:00,
2013-09-03 01:26:00,65.6,64.1,29.91,NNE,25,0.0,0.0,95,0.00,,,0.00,Wunderground v.1.15,2013-09-03 06:26:00,
2013-09-03 01:32:00,65.4,63.9,29.91,NNE,25,0.0,0.0,95,0.00,,,0.00,Wunderground v.1.15,2013-09-03 06:32:00,
2013-09-03 01:38:00,65.3,63.8,29.91,NNE,25,0.0,0.0,95,0.00,,,0.00,Wunderground v.1.15,2013-09-03 06:38:00,
2013-09-03 01:43:00,65.3,63.8,29.91,NNE,25,0.0,0.0,95,0.00,,,0.00,Wunderground v.1.15,2013-09-03 06:43:00,
2013-09-03 01:49:00,65.3,64.1,29.91,NNE,25,0.0,0.0,96,0.00,,,0.00,Wunderground v.1.15,2013-09-03 06:49:00,
2013-09-03 01:55:00,65.4,64.2,29.91,NNE,25,0.0,0.0,96,0.00,,,0.00,Wunderground v.1.15,2013-09-03 06:55:00,
2013-09-03 02:00:00,65.4,64.2,29.91,NNE,25,0.0,0.0,96,0.00,,,0.00,Wunderground v.1.15,2013-09-03 07:00:00,
2013-09-03 02:05:00,65.3,63.8,29.92,NNE,25,0.0,0.0,95,0.00,,,0.00,Wunderground v.1.15,2013-09-03 07:05:00,
2013-09-03 02:10:00,65.2,63.7,29.91,NNE,25,0.0,0.0,95,0.00,,,0.00,Wunderground v.1.15,2013-09-03 07:10:00,
2013-09-03 02:15:00,65.1,63.6,29.91,NNE,25,0.0,0.0,95,0.00,,,0.00,Wunderground v.1.15,2013-09-03 07:15:00,
2013-09-03 02:20:00,65.1,63.9,29.92,NNE,25,0.0,0.0,96,0.00,,,0.00,Wunderground v.1.15,2013-09-03 07:20:00,
2013-09-03 02:25:00,65.1,63.9,29.92,NNE,25,0.0,0.0,96,0.00,,,0.00,Wunderground v.1.15,2013-09-03 07:25:00,
2013-09-03 02:30:00,65.0,63.8,29.91,NNE,25,0.0,0.0,96,0.00,,,0.00,Wunderground v.1.15,2013-09-03 07:30:00,
2013-09-03 02:35:00,64.9,63.7,29.92,NNE,25,0.0,0.0,96,0.00,,,0.00,Wunderground v.1.15,2013-09-03 07:35:00,
2013-09-03 02:40:00,64.9,63.7,29.92,NNE,25,0.0,0.0,96,0.00,,,0.00,Wunderground v.1.15,2013-09-03 07:40:00,
2013-09-03 02:45:00,64.8,63.6,29.92,NNE,25,0.0,0.0,96,0.00,,,0.00,Wunderground v.1.15,2013-09-03 07:45:00,
2013-09-03 02:50:00,64.8,63.6,29.92,NNE,25,0.0,0.0,96,0.00,,,0.00,Wunderground v.1.15,2013-09-03 07:50:00,
2013-09-03 02:55:00,64.8,63.6,29.92,NNE,25,0.0,0.0,96,0.00,,,0.00,Wunderground v.1.15,2013-09-03 07:55:00,
2013-09-03 03:00:00,64.9,63.7,29.92,NNE,25,0.0,0.0,96,0.00,,,0.00,Wunderground v.1.15,2013-09-03 08:00:00,
2013-09-03 03:05:00,65.0,64.1,29.92,NNE,25,0.0,0.0,97,0.00,,,0.00,Wunderground v.1.15,2013-09-03 08:05:00,
2013-09-03 03:10:00,65.1,64.2,29.93,NNE,26,0.0,0.0,97,0.00,,,0.00,Wunderground v.1.15,2013-09-03 08:10:00,
2013-09-03 03:15:00,65.1,63.9,29.93,NNE,25,0.0,0.0,96,0.00,,,0.00,Wunderground v.1.15,2013-09-03 08:15:00,
2013-09-03 03:20:00,65.2,64.3,29.93,NNE,26,0.0,0.0,97,0.00,,,0.00,Wunderground v.1.15,2013-09-03 08:20:00,
2013-09-03 03:25:00,65.3,64.1,29.93,NNE,25,0.0,0.0,96,0.00,,,0.00,Wunderground v.1.15,2013-09-03 08:25:00,
2013-09-03 03:30:00,65.2,64.0,29.93,NNE,25,0.0,0.0,96,0.00,,,0.00,Wunderground v.1.15,2013-09-03 08:30:00,
2013-09-03 03:35:00,65.1,63.9,29.93,NNE,25,0.0,0.0,96,0.00,,,0.00,Wunderground v.1.15,2013-09-03 08:35:00,
2013-09-03 03:40:00,65.0,63.8,29.93,NNE,25,0.0,0.0,96,0.00,,,0.00,Wunderground v.1.15,2013-09-03 08:40:00,
2013-09-03 03:45:00,65.0,63.8,29.93,NNE,25,0.0,0.0,96,0.00,,,0.00,Wunderground v.1.15,2013-09-03 08:45:00,
2013-09-03 03:50:00,65.0,63.8,29.94,NNE,26,0.0,0.0,96,0.00,,,0.00,Wunderground v.1.15,2013-09-03 08:50:00,
2013-09-03 03:55:00,65.2,64.0,29.94,NNE,25,0.0,0.0,96,0.00,,,0.00,Wunderground v.1.15,2013-09-03 08:55:00,
2013-09-03 04:00:00,65.3,63.8,29.94,NNE,25,0.0,0.0,95,0.00,,,0.00,Wunderground v.1.15,2013-09-03 09:00:00,
2013-09-03 04:05:00,65.2,63.7,29.93,NNE,25,0.0,0.0,95,0.00,,,0.00,Wunderground v.1.15,2013-09-03 09:05:00,
2013-09-03 04:10:00,65.0,63.5,29.93,NNE,26,0.0,0.0,95,0.00,,,0.00,Wunderground v.1.15,2013-09-03 09:10:00,
2013-09-03 04:15:00,64.9,63.4,29.93,NNE,26,0.0,0.0,95,0.00,,,0.00,Wunderground v.1.15,2013-09-03 09:15:00,
2013-09-03 04:20:00,64.9,63.4,29.94,NNE,25,0.0,0.0,95,0.00,,,0.00,Wunderground v.1.15,2013-09-03 09:20:00,
2013-09-03 04:25:00,64.9,63.4,29.94,NNE,25,0.0,0.0,95,0.00,,,0.00,Wunderground v.1.15,2013-09-03 09:25:00,
2013-09-03 04:30:00,65.0,63.2,29.93,NNE,25,0.0,0.0,94,0.00,,,0.00,Wunderground v.1.15,2013-09-03 09:30:00,
2013-09-03 04:35:00,65.1,63.3,29.94,NE,37,0.0,1.0,94,0.00,,,0.00,Wunderground v.1.15,2013-09-03 09:35:00,
2013-09-03 04:40:00,65.4,63.6,29.94,NE,37,0.0,0.0,94,0.00,,,0.00,Wunderground v.1.15,2013-09-03 09:40:00,
2013-09-03 04:45:00,65.4,63.3,29.94,NE,37,0.0,0.0,93,0.00,,,0.00,Wunderground v.1.15,2013-09-03 09:45:00,
2013-09-03 04:50:00,65.5,63.4,29.94,NE,37,0.0,0.0,93,0.00,,,0.00,Wunderground v.1.15,2013-09-03 09:50:00,
2013-09-03 04:55:00,65.3,63.2,29.94,NE,37,0.0,0.0,93,0.00,,,0.00,Wunderground v.1.15,2013-09-03 09:55:00,
2013-09-03 05:00:00,65.2,63.1,29.94,NE,37,0.0,0.0,93,0.00,,,0.00,Wunderground v.1.15,2013-09-03 10:00:00,
2013-09-03 05:05:00,65.1,63.3,29.94,NE,37,0.0,0.0,94,0.00,,,0.00,Wunderground v.1.15,2013-09-03 10:05:00,
2013-09-03 05:10:00,64.9,63.1,29.94,NE,37,0.0,0.0,94,0.00,,,0.00,Wunderground v.1.15,2013-09-03 10:10:00,
2013-09-03 05:15:00,64.6,62.8,29.94,NE,37,0.0,0.0,94,0.00,,,0.00,Wunderground v.1.15,2013-09-03 10:15:00,
2013-09-03 05:20:00,64.4,62.9,29.95,NE,37,0.0,0.0,95,0.00,,,0.00,Wunderground v.1.15,2013-09-03 10:20:00,
2013-09-03 05:25:00,64.2,62.7,29.95,NE,37,0.0,0.0,95,0.00,,,0.00,Wunderground v.1.15,2013-09-03 10:25:00,
2013-09-03 05:30:00,63.9,62.4,29.95,NE,37,0.0,0.0,95,0.00,,,0.00,Wunderground v.1.15,2013-09-03 10:30:00,
2013-09-03 05:35:00,63.7,62.2,29.95,NE,37,0.0,0.0,95,0.00,,,0.00,Wunderground v.1.15,2013-09-03 10:35:00,
2013-09-03 05:40:00,63.6,62.4,29.95,NE,37,0.0,0.0,96,0.00,,,0.00,Wunderground v.1.15,2013-09-03 10:40:00,
2013-09-03 05:45:00,63.7,62.5,29.95,NE,37,0.0,0.0,96,0.00,,,0.00,Wunderground v.1.15,2013-09-03 10:45:00,
2013-09-03 05:50:00,63.6,62.4,29.95,NE,37,0.0,0.0,96,0.00,,,0.00,Wunderground v.1.15,2013-09-03 10:50:00,
2013-09-03 05:55:00,63.5,62.3,29.96,NE,37,0.0,0.0,96,0.00,,,0.00,Wunderground v.1.15,2013-09-03 10:55:00,
2013-09-03 06:01:00,63.4,62.2,29.96,NE,37,0.0,0.0,96,0.00,,,0.00,Wunderground v.1.15,2013-09-03 11:01:00,
2013-09-03 06:06:00,63.3,62.1,29.96,NE,37,0.0,0.0,96,0.00,,,0.00,Wunderground v.1.15,2013-09-03 11:06:00,
2013-09-03 06:11:00,63.1,61.9,29.96,NE,37,0.0,0.0,96,0.00,,,0.00,Wunderground v.1.15,2013-09-03 11:11:00,
2013-09-03 06:16:00,62.9,61.7,29.96,NE,37,0.0,0.0,96,0.00,,,0.00,Wunderground v.1.15,2013-09-03 11:16:00,
2013-09-03 06:21:00,62.8,61.9,29.96,NE,37,0.0,0.0,97,0.00,,,0.00,Wunderground v.1.15,2013-09-03 11:21:00,
2013-09-03 06:26:00,62.8,61.9,29.96,North,353,2.0,2.0,97,0.00,,,0.00,Wunderground v.1.15,2013-09-03 11:26:00,
2013-09-03 06:31:00,62.8,61.9,29.96,NNW,346,0.0,1.0,97,0.00,,,0.00,Wunderground v.1.15,2013-09-03 11:31:00,
2013-09-03 06:36:00,62.9,62.0,29.97,NNW,346,0.0,1.0,97,0.00,,,0.00,Wunderground v.1.15,2013-09-03 11:36:00,
2013-09-03 06:41:00,62.9,62.0,29.97,NNW,346,0.0,0.0,97,0.00,,,0.00,Wunderground v.1.15,2013-09-03 11:41:00,
2013-09-03 06:46:00,63.0,62.1,29.97,NNW,346,0.0,1.0,97,0.00,,,0.00,Wunderground v.1.15,2013-09-03 11:46:00,
2013-09-03 06:51:00,63.0,62.1,29.97,NNW,347,0.0,0.0,97,0.00,,,0.00,Wunderground v.1.15,2013-09-03 11:51:00,
2013-09-03 06:56:00,63.0,62.1,29.97,NNW,347,0.0,0.0,97,0.00,,,0.00,Wunderground v.1.15,2013-09-03 11:56:00,
2013-09-03 07:01:00,63.3,62.4,29.97,NNW,347,0.0,0.0,97,0.00,,,0.00,Wunderground v.1.15,2013-09-03 12:01:00,
2013-09-03 07:06:00,63.9,63.3,29.98,NNW,347,0.0,0.0,98,0.00,,,0.00,Wunderground v.1.15,2013-09-03 12:06:00,
2013-09-03 07:11:00,64.1,63.2,29.98,NNW,347,0.0,0.0,97,0.00,,,0.00,Wunderground v.1.15,2013-09-03 12:11:00,
2013-09-03 07:16:00,64.5,63.6,29.98,NNW,345,0.0,0.0,97,0.00,,,0.00,Wunderground v.1.15,2013-09-03 12:16:00,
2013-09-03 07:21:00,65.1,64.2,29.98,NNW,347,0.0,0.0,97,0.00,,,0.00,Wunderground v.1.15,2013-09-03 12:21:00,
2013-09-03 07:26:00,66.4,65.2,29.98,NNE,19,0.0,1.0,96,0.00,,,0.00,Wunderground v.1.15,2013-09-03 12:26:00,
2013-09-03 07:31:00,67.5,65.4,29.98,NNE,30,0.0,1.0,93,0.00,,,0.00,Wunderground v.1.15,2013-09-03 12:31:00,
2013-09-03 07:36:00,68.0,65.3,29.98,NE,51,2.0,2.0,91,0.00,,,0.00,Wunderground v.1.15,2013-09-03 12:36:00,
2013-09-03 07:41:00,68.3,65.3,29.99,NE,43,2.0,2.0,90,0.00,,,0.00,Wunderground v.1.15,2013-09-03 12:41:00,
2013-09-03 07:46:00,68.6,65.5,29.99,NE,40,2.0,3.0,90,0.00,,,0.00,Wunderground v.1.15,2013-09-03 12:46:00,
2013-09-03 07:51:00,68.9,65.5,29.99,NE,43,1.0,4.0,89,0.00,,,0.00,Wunderground v.1.15,2013-09-03 12:51:00,
2013-09-03 07:56:00,69.2,65.8,29.99,NNW,348,0.0,4.0,89,0.00,,,0.00,Wunderground v.1.15,2013-09-03 12:56:00,
2013-09-03 08:01:00,69.4,65.7,29.99,ENE,73,1.0,3.0,88,0.00,,,0.00,Wunderground v.1.15,2013-09-03 13:01:00,
2013-09-03 08:06:00,69.6,66.2,30.00,NE,43,1.0,3.0,89,0.00,,,0.00,Wunderground v.1.15,2013-09-03 13:06:00,
2013-09-03 08:11:00,69.5,65.8,30.00,NE,44,0.0,1.0,88,0.00,,,0.00,Wunderground v.1.15,2013-09-03 13:11:00,
2013-09-03 08:16:00,69.7,66.0,30.00,NE,43,1.0,3.0,88,0.00,,,0.00,Wunderground v.1.15,2013-09-03 13:16:00,
2013-09-03 08:21:00,69.6,65.9,30.00,ENE,58,1.0,2.0,88,0.00,,,0.00,Wunderground v.1.15,2013-09-03 13:21:00,
2013-09-03 08:26:00,69.7,66.0,30.00,NE,37,1.0,4.0,88,0.00,,,0.00,Wunderground v.1.15,2013-09-03 13:26:00,
2013-09-03 08:31:00,69.8,66.1,30.00,NE,37,1.0,5.0,88,0.00,,,0.00,Wunderground v.1.15,2013-09-03 13:31:00,
2013-09-03 08:36:00,70.2,66.5,30.00,North,6,2.0,5.0,88,0.00,,,0.00,Wunderground v.1.15,2013-09-03 13:36:00,
2013-09-03 08:41:00,70.3,66.2,30.00,NNE,26,1.0,3.0,87,0.00,,,0.00,Wunderground v.1.15,2013-09-03 13:41:00,
2013-09-03 08:46:00,70.3,66.2,30.00,NE,46,2.0,4.0,87,0.00,,,0.00,Wunderground v.1.15,2013-09-03 13:46:00,
2013-09-03 08:51:00,70.6,66.9,30.00,NE,41,2.0,3.0,88,0.00,,,0.00,Wunderground v.1.15,2013-09-03 13:51:00,
2013-09-03 08:56:00,71.2,67.5,30.00,NE,43,1.0,3.0,88,0.00,,,0.00,Wunderground v.1.15,2013-09-03 13:56:00,
2013-09-03 09:01:00,71.6,67.2,30.01,ENE,64,2.0,3.0,86,0.00,,,0.00,Wunderground v.1.15,2013-09-03 14:01:00,
2013-09-03 09:06:00,71.9,67.5,30.01,NE,46,1.0,3.0,86,0.00,,,0.00,Wunderground v.1.15,2013-09-03 14:06:00,
2013-09-03 09:11:00,72.0,67.6,30.01,NE,39,1.0,2.0,86,0.00,,,0.00,Wunderground v.1.15,2013-09-03 14:11:00,
2013-09-03 09:16:00,72.2,67.1,30.01,NNW,340,0.0,4.0,84,0.00,,,0.00,Wunderground v.1.15,2013-09-03 14:16:00,
2013-09-03 09:21:00,72.6,67.5,30.01,ENE,65,0.0,5.0,84,0.00,,,0.00,Wunderground v.1.15,2013-09-03 14:21:00,
2013-09-03 09:26:00,73.0,67.9,30.01,NE,40,3.0,5.0,84,0.00,,,0.00,Wunderground v.1.15,2013-09-03 14:26:00,
2013-09-03 09:31:00,73.3,68.2,30.01,NE,49,2.0,2.0,84,0.00,,,0.00,Wunderground v.1.15,2013-09-03 14:31:00,
2013-09-03 09:36:00,73.4,68.3,30.01,NNW,342,1.0,4.0,84,0.00,,,0.00,Wunderground v.1.15,2013-09-03 14:36:00,
2013-09-03 09:41:00,73.5,68.4,30.01,NNE,13,3.0,3.0,84,0.00,,,0.00,Wunderground v.1.15,2013-09-03 14:41:00,
2013-09-03 09:46:00,73.9,68.1,30.01,NNW,335,0.0,3.0,82,0.00,,,0.00,Wunderground v.1.15,2013-09-03 14:46:00,
2013-09-03 09:51:00,74.1,67.5,30.01,NE,46,1.0,5.0,80,0.00,,,0.00,Wunderground v.1.15,2013-09-03 14:51:00,
2013-09-03 09:56:00,74.5,68.3,30.01,NE,41,1.0,5.0,81,0.00,,,0.00,Wunderground v.1.15,2013-09-03 14:56:00,
2013-09-03 10:01:00,75.1,68.5,30.01,East,91,3.0,4.0,80,0.00,,,0.00,Wunderground v.1.15,2013-09-03 15:01:00,
2013-09-03 10:06:00,75.7,68.4,30.01,East,85,0.0,4.0,78,0.00,,,0.00,Wunderground v.1.15,2013-09-03 15:06:00,
2013-09-03 10:11:00,75.9,68.5,30.01,NE,43,1.0,3.0,78,0.00,,,0.00,Wunderground v.1.15,2013-09-03 15:11:00,
2013-09-03 10:16:00,76.1,68.4,30.01,East,94,1.0,4.0,77,0.00,,,0.00,Wunderground v.1.15,2013-09-03 15:16:00,
2013-09-03 10:21:00,76.5,69.5,30.01,NE,47,2.0,3.0,79,0.00,,,0.00,Wunderground v.1.15,2013-09-03 15:21:00,
2013-09-03 10:26:00,76.5,69.1,30.01,WNW,302,4.0,5.0,78,0.00,,,0.00,Wunderground v.1.15,2013-09-03 15:26:00,
2013-09-03 10:31:00,76.3,68.6,30.02,WNW,283,2.0,4.0,77,0.00,,,0.00,Wunderground v.1.15,2013-09-03 15:31:00,
2013-09-03 10:36:00,76.1,68.7,30.02,NE,49,3.0,5.0,78,0.00,,,0.00,Wunderground v.1.15,2013-09-03 15:36:00,
2013-09-03 10:41:00,76.7,69.7,30.02,NNW,338,2.0,3.0,79,0.00,,,0.00,Wunderground v.1.15,2013-09-03 15:41:00,
2013-09-03 10:46:00,76.8,69.4,30.02,NNE,15,0.0,5.0,78,0.00,,,0.00,Wunderground v.1.15,2013-09-03 15:46:00,
2013-09-03 10:51:00,76.9,68.4,30.02,NNW,336,1.0,5.0,75,0.00,,,0.00,Wunderground v.1.15,2013-09-03 15:51:00,
2013-09-03 10:56:00,77.0,68.1,30.02,NNE,30,0.0,5.0,74,0.00,,,0.00,Wunderground v.1.15,2013-09-03 15:56:00,
2013-09-03 11:01:00,77.6,68.7,30.01,NE,46,6.0,6.0,74,0.00,,,0.00,Wunderground v.1.15,2013-09-03 16:01:00,
2013-09-03 11:06:00,77.7,68.0,30.01,NNE,33,3.0,8.0,72,0.00,,,0.00,Wunderground v.1.15,2013-09-03 16:06:00,
2013-09-03 11:11:00,77.7,68.0,30.01,East,91,1.0,5.0,72,0.00,,,0.00,Wunderground v.1.15,2013-09-03 16:11:00,
2013-09-03 11:16:00,78.2,68.8,30.01,NE,44,2.0,5.0,73,0.00,,,0.00,Wunderground v.1.15,2013-09-03 16:16:00,
2013-09-03 11:21:00,78.5,68.7,30.01,NE,46,2.0,4.0,72,0.00,,,0.00,Wunderground v.1.15,2013-09-03 16:21:00,
2013-09-03 11:26:00,78.8,68.2,30.01,WNW,302,1.0,4.0,70,0.00,,,0.00,Wunderground v.1.15,2013-09-03 16:26:00,
2013-09-03 11:31:00,79.0,68.0,30.01,NE,40,4.0,5.0,69,0.00,,,0.00,Wunderground v.1.15,2013-09-03 16:31:00,
2013-09-03 11:36:00,79.2,66.9,30.01,WNW,293,1.0,6.0,66,0.00,,,0.00,Wunderground v.1.15,2013-09-03 16:36:00,
2013-09-03 11:41:00,79.5,69.3,30.01,ESE,114,2.0,4.0,71,0.00,,,0.00,Wunderground v.1.15,2013-09-03 16:41:00,
2013-09-03 11:46:00,79.7,67.8,30.01,NNW,328,2.0,4.0,67,0.00,,,0.00,Wunderground v.1.15,2013-09-03 16:46:00,
2013-09-03 11:51:00,79.8,67.9,30.01,NW,309,3.0,3.0,67,0.00,,,0.00,Wunderground v.1.15,2013-09-03 16:51:00,
2013-09-03 11:56:00,79.9,67.5,30.01,NW,318,1.0,7.0,66,0.00,,,0.00,Wunderground v.1.15,2013-09-03 16:56:00,
2013-09-03 12:02:00,80.0,68.5,30.01,NW,307,3.0,5.0,68,0.00,,,0.00,Wunderground v.1.15,2013-09-03 17:02:00,
2013-09-03 12:07:00,80.6,67.7,30.01,NW,311,2.0,6.0,65,0.00,,,0.00,Wunderground v.1.15,2013-09-03 17:07:00,
2013-09-03 12:12:00,80.7,67.4,30.00,NE,48,0.0,5.0,64,0.00,,,0.00,Wunderground v.1.15,2013-09-03 17:12:00,
2013-09-03 12:17:00,81.3,67.0,30.00,North,353,3.0,7.0,62,0.00,,,0.00,Wunderground v.1.15,2013-09-03 17:17:00,
2013-09-03 12:22:00,81.2,66.5,30.00,NE,51,5.0,7.0,61,0.00,,,0.00,Wunderground v.1.15,2013-09-03 17:22:00,
2013-09-03 12:27:00,81.4,66.2,30.00,NNW,330,1.0,7.0,60,0.00,,,0.00,Wunderground v.1.15,2013-09-03 17:27:00,
2013-09-03 12:32:00,81.7,66.5,30.00,ENE,65,4.0,7.0,60,0.00,,,0.00,Wunderground v.1.15,2013-09-03 17:32:00,
2013-09-03 12:37:00,81.6,66.4,30.00,NE,41,2.0,7.0,60,0.00,,,0.00,Wunderground v.1.15,2013-09-03 17:37:00,
2013-09-03 12:42:00,81.9,64.1,30.00,East,87,2.0,4.0,55,0.00,,,0.00,Wunderground v.1.15,2013-09-03 17:42:00,
2013-09-03 12:47:00,82.3,67.0,30.00,NW,315,1.0,8.0,60,0.00,,,0.00,Wunderground v.1.15,2013-09-03 17:47:00,
2013-09-03 12:52:00,82.3,65.5,30.00,WNW,293,3.0,7.0,57,0.00,,,0.00,Wunderground v.1.15,2013-09-03 17:52:00,
2013-09-03 12:57:00,81.3,66.6,30.00,NW,325,1.0,7.0,61,0.00,,,0.00,Wunderground v.1.15,2013-09-03 17:57:00,
2013-09-03 13:02:00,81.6,65.4,29.99,North,9,3.0,6.0,58,0.00,,,0.00,Wunderground v.1.15,2013-09-03 18:02:00,
2013-09-03 13:07:00,81.8,66.1,29.99,NNE,28,2.0,6.0,59,0.00,,,0.00,Wunderground v.1.15,2013-09-03 18:07:00,
2013-09-03 13:12:00,81.9,64.1,29.99,NW,312,1.0,3.0,55,0.00,,,0.00,Wunderground v.1.15,2013-09-03 18:12:00,
2013-09-03 13:17:00,82.2,64.4,29.99,ENE,63,1.0,7.0,55,0.00,,,0.00,Wunderground v.1.15,2013-09-03 18:17:00,
2013-09-03 13:22:00,82.5,64.2,29.99,ENE,58,1.0,5.0,54,0.00,,,0.00,Wunderground v.1.15,2013-09-03 18:22:00,
2013-09-03 13:27:00,82.8,65.0,29.99,NW,309,2.0,5.0,55,0.00,,,0.00,Wunderground v.1.15,2013-09-03 18:27:00,
2013-09-03 13:32:00,83.2,65.9,29.99,NNE,18,1.0,3.0,56,0.00,,,0.00,Wunderground v.1.15,2013-09-03 18:32:00,
2013-09-03 13:37:00,83.5,64.6,29.99,NE,44,3.0,4.0,53,0.00,,,0.00,Wunderground v.1.15,2013-09-03 18:37:00,
2013-09-03 13:42:00,83.3,63.8,29.99,NNE,23,1.0,4.0,52,0.00,,,0.00,Wunderground v.1.15,2013-09-03 18:42:00,
2013-09-03 13:47:00,83.1,64.7,29.99,NNW,330,4.0,5.0,54,0.00,,,0.00,Wunderground v.1.15,2013-09-03 18:47:00,
2013-09-03 13:52:00,82.7,63.8,29.99,NNW,338,0.0,7.0,53,0.00,,,0.00,Wunderground v.1.15,2013-09-03 18:52:00,
2013-09-03 13:57:00,82.6,65.3,29.99,NW,304,3.0,7.0,56,0.00,,,0.00,Wunderground v.1.15,2013-09-03 18:57:00,
2013-09-03 14:02:00,82.9,66.6,29.99,WNW,293,1.0,4.0,58,0.00,,,0.00,Wunderground v.1.15,2013-09-03 19:02:00,
2013-09-03 14:07:00,83.6,65.7,29.99,NNW,340,2.0,6.0,55,0.00,,,0.00,Wunderground v.1.15,2013-09-03 19:07:00,
2013-09-03 14:12:00,83.9,67.0,29.99,NW,318,2.0,4.0,57,0.00,,,0.00,Wunderground v.1.15,2013-09-03 19:12:00,
2013-09-03 14:17:00,84.1,63.5,29.99,WSW,240,3.0,7.0,50,0.00,,,0.00,Wunderground v.1.15,2013-09-03 19:17:00,
2013-09-03 14:22:00,83.7,64.8,29.99,NW,305,5.0,5.0,53,0.00,,,0.00,Wunderground v.1.15,2013-09-03 19:22:00,
2013-09-03 14:27:00,83.3,63.8,29.98,ENE,73,0.0,8.0,52,0.00,,,0.00,Wunderground v.1.15,2013-09-03 19:27:00,
2013-09-03 14:32:00,83.7,65.3,29.98,NE,42,4.0,8.0,54,0.00,,,0.00,Wunderground v.1.15,2013-09-03 19:32:00,
2013-09-03 14:37:00,82.9,64.5,29.98,East,84,0.0,8.0,54,0.00,,,0.00,Wunderground v.1.15,2013-09-03 19:37:00,
2013-09-03 14:43:00,82.5,63.6,29.98,NE,42,2.0,3.0,53,0.00,,,0.00,Wunderground v.1.15,2013-09-03 19:43:00,
2013-09-03 14:48:00,82.9,65.6,29.97,NW,323,4.0,4.0,56,0.00,,,0.00,Wunderground v.1.15,2013-09-03 19:48:00,
2013-09-03 14:53:00,82.4,64.6,29.97,North,10,2.0,6.0,55,0.00,,,0.00,Wunderground v.1.15,2013-09-03 19:53:00,
2013-09-03 14:58:00,81.8,65.1,29.98,NE,43,1.0,6.0,57,0.00,,,0.00,Wunderground v.1.15,2013-09-03 19:58:00,
2013-09-03 15:03:00,82.0,67.2,29.98,NNW,342,1.0,2.0,61,0.00,,,0.00,Wunderground v.1.15,2013-09-03 20:03:00,
2013-09-03 15:08:00,81.9,64.7,29.98,NNW,343,0.0,2.0,56,0.00,,,0.00,Wunderground v.1.15,2013-09-03 20:08:00,
2013-09-03 15:13:00,82.5,64.7,29.97,NW,309,0.0,3.0,55,0.00,,,0.00,Wunderground v.1.15,2013-09-03 20:13:00,
2013-09-03 15:18:00,83.2,63.7,29.97,NE,48,3.0,4.0,52,0.00,,,0.00,Wunderground v.1.15,2013-09-03 20:18:00,
2013-09-03 15:22:00,83.8,64.8,29.97,NE,40,3.0,6.0,53,0.00,,,0.00,Wunderground v.1.15,2013-09-03 20:22:00,
2013-09-03 15:27:00,83.0,65.2,29.97,NNE,21,2.0,6.0,55,0.00,,,0.00,Wunderground v.1.15,2013-09-03 20:27:00,
2013-09-03 15:32:00,82.2,63.9,29.97,NE,47,4.0,8.0,54,0.00,,,0.00,Wunderground v.1.15,2013-09-03 20:32:00,
2013-09-03 15:37:00,81.8,64.6,29.97,NNE,30,0.0,8.0,56,0.00,,,0.00,Wunderground v.1.15,2013-09-03 20:37:00,
2013-09-03 15:42:00,82.6,66.3,29.97,ENE,77,1.0,3.0,58,0.00,,,0.00,Wunderground v.1.15,2013-09-03 20:42:00,
2013-09-03 15:47:00,83.2,64.3,29.97,North,10,1.0,3.0,53,0.00,,,0.00,Wunderground v.1.15,2013-09-03 20:47:00,
2013-09-03 15:52:00,82.7,64.9,29.97,North,9,0.0,2.0,55,0.00,,,0.00,Wunderground v.1.15,2013-09-03 20:52:00,
2013-09-03 15:57:00,82.0,65.8,29.97,NNE,13,0.0,2.0,58,0.00,,,0.00,Wunderground v.1.15,2013-09-03 20:57:00,
2013-09-03 16:02:00,81.5,65.3,29.97,NNE,13,0.0,2.0,58,0.00,,,0.00,Wunderground v.1.15,2013-09-03 21:02:00,
2013-09-03 16:07:00,82.1,65.4,29.97,NE,44,2.0,2.0,57,0.00,,,0.00,Wunderground v.1.15,2013-09-03 21:07:00,
2013-09-03 16:12:00,82.8,64.5,29.97,ENE,58,7.0,7.0,54,0.00,,,0.00,Wunderground v.1.15,2013-09-03 21:12:00,
2013-09-03 16:17:00,82.3,65.0,29.97,NE,56,5.0,7.0,56,0.00,,,0.00,Wunderground v.1.15,2013-09-03 21:17:00,
2013-09-03 16:22:00,81.9,65.7,29.97,NE,34,2.0,3.0,58,0.00,,,0.00,Wunderground v.1.15,2013-09-03 21:22:00,
2013-09-03 16:27:00,82.5,67.2,29.96,NE,50,0.0,3.0,60,0.00,,,0.00,Wunderground v.1.15,2013-09-03 21:27:00,
2013-09-03 16:32:00,83.2,66.4,29.96,NNW,336,1.0,4.0,57,0.00,,,0.00,Wunderground v.1.15,2013-09-03 21:32:00,
2013-09-03 16:37:00,83.8,65.4,29.97,NNE,27,3.0,5.0,54,0.00,,,0.00,Wunderground v.1.15,2013-09-03 21:37:00,
2013-09-03 16:42:00,83.8,64.3,29.96,ENE,65,6.0,9.0,52,0.00,,,0.00,Wunderground v.1.15,2013-09-03 21:42:00,
2013-09-03 16:47:00,83.7,66.3,29.96,SE,138,2.0,9.0,56,0.00,,,0.00,Wunderground v.1.15,2013-09-03 21:47:00,
2013-09-03 16:52:00,84.2,65.8,29.96,East,100,3.0,6.0,54,0.00,,,0.00,Wunderground v.1.15,2013-09-03 21:52:00,
2013-09-03 16:57:00,83.3,66.0,29.97,East,96,1.0,6.0,56,0.00,,,0.00,Wunderground v.1.15,2013-09-03 21:57:00,
2013-09-03 17:02:00,82.4,66.1,29.96,NE,37,0.0,2.0,58,0.00,,,0.00,Wunderground v.1.15,2013-09-03 22:02:00,
2013-09-03 17:07:00,81.6,65.9,29.96,ENE,60,1.0,2.0,59,0.00,,,0.00,Wunderground v.1.15,2013-09-03 22:07:00,
2013-09-03 17:12:00,81.3,66.6,29.96,ENE,58,1.0,1.0,61,0.00,,,0.00,Wunderground v.1.15,2013-09-03 22:12:00,
2013-09-03 17:17:00,81.6,66.4,29.96,NE,41,1.0,2.0,60,0.00,,,0.00,Wunderground v.1.15,2013-09-03 22:17:00,
2013-09-03 17:22:00,82.4,67.6,29.96,ENE,70,4.0,4.0,61,0.00,,,0.00,Wunderground v.1.15,2013-09-03 22:22:00,
2013-09-03 17:27:00,82.8,65.5,29.96,NNE,18,1.0,8.0,56,0.00,,,0.00,Wunderground v.1.15,2013-09-03 22:27:00,
2013-09-03 17:32:00,82.9,65.1,29.96,East,82,0.0,8.0,55,0.00,,,0.00,Wunderground v.1.15,2013-09-03 22:32:00,
2013-09-03 17:37:00,83.1,65.3,29.96,ENE,60,4.0,8.0,55,0.00,,,0.00,Wunderground v.1.15,2013-09-03 22:37:00,
2013-09-03 17:42:00,82.7,65.9,29.96,ESE,122,0.0,4.0,57,0.00,,,0.00,Wunderground v.1.15,2013-09-03 22:42:00,
2013-09-03 17:47:00,82.6,66.8,29.96,ENE,58,1.0,4.0,59,0.00,,,0.00,Wunderground v.1.15,2013-09-03 22:47:00,
2013-09-03 17:52:00,82.6,65.8,29.96,NE,56,3.0,7.0,57,0.00,,,0.00,Wunderground v.1.15,2013-09-03 22:52:00,
2013-09-03 17:57:00,81.9,65.7,29.96,NE,56,6.0,8.0,58,0.00,,,0.00,Wunderground v.1.15,2013-09-03 22:57:00,
2013-09-03 18:02:00,81.5,65.3,29.96,North,8,0.0,8.0,58,0.00,,,0.00,Wunderground v.1.15,2013-09-03 23:02:00,
2013-09-03 18:07:00,81.6,65.4,29.97,ENE,61,0.0,8.0,58,0.00,,,0.00,Wunderground v.1.15,2013-09-03 23:07:00,
2013-09-03 18:12:00,81.5,66.3,29.97,NE,56,0.0,3.0,60,0.00,,,0.00,Wunderground v.1.15,2013-09-03 23:12:00,
2013-09-03 18:17:00,80.8,65.6,29.97,NE,53,0.0,4.0,60,0.00,,,0.00,Wunderground v.1.15,2013-09-03 23:17:00,
2013-09-03 18:22:00,80.5,65.8,29.97,ENE,59,1.0,2.0,61,0.00,,,0.00,Wunderground v.1.15,2013-09-03 23:22:00,
2013-09-03 18:27:00,80.6,66.8,29.96,East,88,0.0,2.0,63,0.00,,,0.00,Wunderground v.1.15,2013-09-03 23:27:00,
2013-09-03 18:33:00,80.8,67.0,29.96,ENE,58,2.0,2.0,63,0.00,,,0.00,Wunderground v.1.15,2013-09-03 23:33:00,
2013-09-03 18:38:00,80.8,67.0,29.96,NW,304,0.0,2.0,63,0.00,,,0.00,Wunderground v.1.15,2013-09-03 23:38:00,
2013-09-03 18:43:00,80.7,66.9,29.97,NNE,32,0.0,1.0,63,0.00,,,0.00,Wunderground v.1.15,2013-09-03 23:43:00,
2013-09-03 18:48:00,80.5,66.7,29.97,NE,41,0.0,1.0,63,0.00,,,0.00,Wunderground v.1.15,2013-09-03 23:48:00,
2013-09-03 18:53:00,80.2,66.9,29.97,ENE,58,0.0,1.0,64,0.00,,,0.00,Wunderground v.1.15,2013-09-03 23:53:00,
2013-09-03 18:58:00,79.8,67.0,29.97,ENE,58,0.0,1.0,65,0.00,,,0.00,Wunderground v.1.15,2013-09-03 23:58:00,
2013-09-03 19:03:00,79.2,67.3,29.97,ENE,58,0.0,1.0,67,0.00,,,0.00,Wunderground v.1.15,2013-09-04 00:03:00,
2013-09-03 19:08:00,78.5,67.9,29.97,ENE,58,0.0,1.0,70,0.00,,,0.00,Wunderground v.1.15,2013-09-04 00:08:00,
2013-09-03 19:13:00,78.0,67.8,29.97,ENE,58,0.0,0.0,71,0.00,,,0.00,Wunderground v.1.15,2013-09-04 00:13:00,
2013-09-03 19:18:00,77.0,67.3,29.97,ENE,58,0.0,0.0,72,0.00,,,0.00,Wunderground v.1.15,2013-09-04 00:18:00,
2013-09-03 19:23:00,76.0,67.5,29.97,ENE,58,0.0,0.0,75,0.00,,,0.00,Wunderground v.1.15,2013-09-04 00:23:00,
2013-09-03 19:28:00,75.0,67.3,29.98,ENE,58,0.0,0.0,77,0.00,,,0.00,Wunderground v.1.15,2013-09-04 00:28:00,
2013-09-03 19:33:00,74.1,66.8,29.98,ENE,58,0.0,0.0,78,0.00,,,0.00,Wunderground v.1.15,2013-09-04 00:33:00,
2013-09-03 19:38:00,73.3,66.4,29.98,ENE,58,0.0,0.0,79,0.00,,,0.00,Wunderground v.1.15,2013-09-04 00:38:00,
2013-09-03 19:43:00,72.5,66.3,29.98,ENE,58,0.0,0.0,81,0.00,,,0.00,Wunderground v.1.15,2013-09-04 00:43:00,
2013-09-03 19:48:00,71.8,66.4,29.98,ENE,58,0.0,0.0,83,0.00,,,0.00,Wunderground v.1.15,2013-09-04 00:48:00,
2013-09-03 19:53:00,71.2,66.5,29.98,ENE,58,0.0,0.0,85,0.00,,,0.00,Wunderground v.1.15,2013-09-04 00:53:00,
2013-09-03 19:58:00,70.9,66.2,29.98,ENE,58,0.0,0.0,85,0.00,,,0.00,Wunderground v.1.15,2013-09-04 00:58:00,
2013-09-03 20:03:00,70.5,66.1,29.98,ENE,58,0.0,0.0,86,0.00,,,0.00,Wunderground v.1.15,2013-09-04 01:03:00,
2013-09-03 20:08:00,70.1,65.7,29.98,ENE,58,0.0,0.0,86,0.00,,,0.00,Wunderground v.1.15,2013-09-04 01:08:00,
2013-09-03 20:13:00,69.9,66.2,29.98,ENE,58,0.0,0.0,88,0.00,,,0.00,Wunderground v.1.15,2013-09-04 01:13:00,
2013-09-03 20:18:00,69.8,65.8,29.99,ENE,58,0.0,0.0,87,0.00,,,0.00,Wunderground v.1.15,2013-09-04 01:18:00,
2013-09-03 20:23:00,69.7,66.0,29.99,ENE,57,0.0,0.0,88,0.00,,,0.00,Wunderground v.1.15,2013-09-04 01:23:00,
2013-09-03 20:28:00,69.6,65.9,29.99,ENE,57,0.0,0.0,88,0.00,,,0.00,Wunderground v.1.15,2013-09-04 01:28:00,
2013-09-03 20:33:00,69.4,65.7,29.99,ENE,57,0.0,0.0,88,0.00,,,0.00,Wunderground v.1.15,2013-09-04 01:33:00,
2013-09-03 20:38:00,69.0,65.6,30.00,ENE,57,0.0,1.0,89,0.00,,,0.00,Wunderground v.1.15,2013-09-04 01:38:00,
2013-09-03 20:43:00,68.8,65.4,30.00,ENE,57,0.0,0.0,89,0.00,,,0.00,Wunderground v.1.15,2013-09-04 01:43:00,
2013-09-03 20:48:00,68.5,65.4,30.00,ENE,58,0.0,0.0,90,0.00,,,0.00,Wunderground v.1.15,2013-09-04 01:48:00,
2013-09-03 20:53:00,68.4,65.7,30.00,ENE,58,0.0,0.0,91,0.00,,,0.00,Wunderground v.1.15,2013-09-04 01:53:00,
2013-09-03 20:58:00,68.4,65.7,30.00,ENE,57,0.0,0.0,91,0.00,,,0.00,Wunderground v.1.15,2013-09-04 01:58:00,
2013-09-03 21:03:00,68.4,65.7,30.00,ENE,57,0.0,0.0,91,0.00,,,0.00,Wunderground v.1.15,2013-09-04 02:03:00,
2013-09-03 21:08:00,68.3,65.6,30.01,ENE,57,0.0,0.0,91,0.00,,,0.00,Wunderground v.1.15,2013-09-04 02:08:00,
2013-09-03 21:13:00,68.3,65.6,30.01,ENE,58,0.0,0.0,91,0.00,,,0.00,Wunderground v.1.15,2013-09-04 02:13:00,
2013-09-03 21:18:00,68.3,65.6,30.01,ENE,58,0.0,0.0,91,0.00,,,0.00,Wunderground v.1.15,2013-09-04 02:18:00,
2013-09-03 21:23:00,68.4,66.0,30.01,ENE,58,0.0,0.0,92,0.00,,,0.00,Wunderground v.1.15,2013-09-04 02:23:00,
2013-09-03 21:28:00,68.8,66.1,30.02,ESE,115,0.0,1.0,91,0.00,,,0.00,Wunderground v.1.15,2013-09-04 02:28:00,
2013-09-03 21:33:00,69.1,65.7,30.02,ESE,115,0.0,0.0,89,0.00,,,0.00,Wunderground v.1.15,2013-09-04 02:33:00,
2013-09-03 21:38:00,69.2,65.8,30.02,ESE,115,0.0,1.0,89,0.00,,,0.00,Wunderground v.1.15,2013-09-04 02:38:00,
2013-09-03 21:43:00,69.2,65.8,30.02,ESE,115,0.0,0.0,89,0.00,,,0.00,Wunderground v.1.15,2013-09-04 02:43:00,
2013-09-03 21:48:00,69.3,65.9,30.02,ESE,115,0.0,1.0,89,0.00,,,0.00,Wunderground v.1.15,2013-09-04 02:48:00,
2013-09-03 21:53:00,69.3,65.9,30.02,ESE,115,0.0,0.0,89,0.00,,,0.00,Wunderground v.1.15,2013-09-04 02:53:00,
2013-09-03 21:58:00,69.1,65.7,30.03,ESE,115,0.0,0.0,89,0.00,,,0.00,Wunderground v.1.15,2013-09-04 02:58:00,
2013-09-03 22:03:00,68.8,65.4,30.03,ESE,115,0.0,0.0,89,0.00,,,0.00,Wunderground v.1.15,2013-09-04 03:03:00,
2013-09-03 22:08:00,68.4,65.4,30.03,ESE,115,0.0,1.0,90,0.00,,,0.00,Wunderground v.1.15,2013-09-04 03:08:00,
2013-09-03 22:13:00,68.0,65.3,30.03,ESE,115,0.0,0.0,91,0.00,,,0.00,Wunderground v.1.15,2013-09-04 03:13:00,
2013-09-03 22:18:00,67.8,65.4,30.03,ESE,115,0.0,0.0,92,0.00,,,0.00,Wunderground v.1.15,2013-09-04 03:18:00,
2013-09-03 22:23:00,67.5,65.1,30.03,ESE,115,0.0,0.0,92,0.00,,,0.00,Wunderground v.1.15,2013-09-04 03:23:00,
2013-09-03 22:28:00,67.1,64.7,30.03,ESE,115,0.0,0.0,92,0.00,,,0.00,Wunderground v.1.15,2013-09-04 03:28:00,
2013-09-03 22:33:00,66.9,64.8,30.03,ESE,115,0.0,0.0,93,0.00,,,0.00,Wunderground v.1.15,2013-09-04 03:33:00,
2013-09-03 22:38:00,66.8,64.7,30.03,ESE,115,0.0,0.0,93,0.00,,,0.00,Wunderground v.1.15,2013-09-04 03:38:00,
2013-09-03 22:43:00,66.6,64.5,30.04,ESE,115,0.0,0.0,93,0.00,,,0.00,Wunderground v.1.15,2013-09-04 03:43:00,
2013-09-03 22:48:00,66.4,64.3,30.04,ESE,115,0.0,0.0,93,0.00,,,0.00,Wunderground v.1.15,2013-09-04 03:48:00,
2013-09-03 22:53:00,66.2,64.4,30.04,ESE,115,0.0,0.0,94,0.00,,,0.00,Wunderground v.1.15,2013-09-04 03:53:00,
2013-09-03 22:58:00,66.0,64.2,30.04,ESE,114,0.0,0.0,94,0.00,,,0.00,Wunderground v.1.15,2013-09-04 03:58:00,
2013-09-03 23:01:00,65.9,64.1,30.04,ESE,114,0.0,0.0,94,0.00,,,0.00,Wunderground v.1.15,2013-09-04 04:01:00,
2013-09-03 23:03:00,65.8,64.0,30.04,ESE,115,0.0,0.0,94,0.00,,,0.00,Wunderground v.1.15,2013-09-04 04:03:00,
2013-09-03 23:08:00,65.6,63.8,30.04,ESE,114,0.0,0.0,94,0.00,,,0.00,Wunderground v.1.15,2013-09-04 04:08:00,
2013-09-03 23:13:00,65.8,64.0,30.04,ESE,115,0.0,0.0,94,0.00,,,0.00,Wunderground v.1.15,2013-09-04 04:13:00,
2013-09-03 23:18:00,66.2,64.4,30.04,ESE,115,0.0,0.0,94,0.00,,,0.00,Wunderground v.1.15,2013-09-04 04:18:00,
2013-09-03 23:23:00,66.8,64.4,30.04,ESE,103,0.0,0.0,92,0.00,,,0.00,Wunderground v.1.15,2013-09-04 04:23:00,
2013-09-03 23:28:00,66.9,64.2,30.05,ESE,103,0.0,0.0,91,0.00,,,0.00,Wunderground v.1.15,2013-09-04 04:28:00,
2013-09-03 23:33:00,66.7,63.7,30.05,ESE,103,0.0,0.0,90,0.00,,,0.00,Wunderground v.1.15,2013-09-04 04:33:00,
2013-09-03 23:38:00,66.3,63.6,30.05,ESE,103,0.0,0.0,91,0.00,,,0.00,Wunderground v.1.15,2013-09-04 04:38:00,
2013-09-03 23:43:00,66.0,63.6,30.05,ESE,103,0.0,0.0,92,0.00,,,0.00,Wunderground v.1.15,2013-09-04 04:43:00,
2013-09-03 23:48:00,65.6,63.5,30.05,ESE,103,0.0,0.0,93,0.00,,,0.00,Wunderground v.1.15,2013-09-04 04:48:00,
2013-09-03 23:53:00,65.4,63.3,30.05,ESE,103,0.0,0.0,93,0.00,,,0.00,Wunderground v.1.15,2013-09-04 04:53:00,
2013-09-03 23:58:00,65.2,63.1,30.05,ESE,103,0.0,0.0,93,0.00,,,0.00,Wunderground v.1.15,2013-09-04 04:58:00,